Time;durP1;ratioP1;P1;durP2;ratioP2;P2;SDS_P1;SDS_P2;PMS_P1;PMS_P2;Temp;Humidity;BMP_temperature;BMP_pressure;BME280_temperature;BME280_humidity;BME280_pressure;Samples;Min_cycle;Max_cycle;Signal;HPM_P1;HPM_P2
2022/05/14 00:01:03;;;;;;;;;;;;;;;14.14;58.31;101639.38;5084266;28;20470;-75
2022/05/14 00:03:29;;;;;;;;;;;;;;;14.10;58.66;101634.22;5090406;28;19927;-75
2022/05/14 00:05:56;;;;;;;;;;;;;;;14.21;58.29;101632.22;5096011;28;19942;-78
2022/05/14 00:08:22;;;;;;;;;;;;;;;14.13;57.94;101634.16;5093039;28;19920;-74
2022/05/14 00:13:33;;;;;;;;;;;;;;;13.94;59.03;101638.91;5090479;28;19927;-77
2022/05/14 00:15:58;;;;;;;;;;;;;;;13.98;58.71;101635.34;5094611;28;19924;-77
2022/05/14 00:18:23;;;;;;;;;;;;;;;14.00;58.73;101643.16;5087755;28;20288;-77
2022/05/14 00:20:49;;;;;;;;;;;;;;;14.03;58.41;101640.47;5086532;28;20385;-77
2022/05/14 00:23:15;;;;;;;;;;;;;;;14.01;58.56;101637.03;5089823;28;19986;-74
2022/05/14 00:25:41;;;;;;;;;;;;;;;13.79;59.13;101631.41;5086465;28;19924;-74
2022/05/14 00:28:06;;;;;;;;;;;;;;;13.85;59.02;101636.50;5085650;28;20289;-75
2022/05/14 00:30:32;;;;;;;;;;;;;;;13.83;59.14;101635.69;5085355;28;20384;-74
2022/05/14 00:32:58;;;;;;;;;;;;;;;13.86;58.75;101626.91;5090780;28;19965;-77
2022/05/14 00:35:24;;;;;;;;;;;;;;;13.83;59.19;101635.69;5076745;28;20381;-77
2022/05/14 00:37:50;;;;;;;;;;;;;;;13.81;59.22;101642.69;5085247;28;19924;-77
2022/05/14 00:40:20;;;;;;;;;;;;;;;13.79;58.69;101639.22;5084284;28;20561;-74
2022/05/14 00:42:45;;;;;;;;;;;;;;;13.73;59.08;101635.00;5073803;28;19920;-77
2022/05/14 00:45:12;;;;;;;;;;;;;;;13.85;58.79;101638.28;5064896;28;19924;-77
2022/05/14 00:47:39;;;;;;;;;;;;;;;13.69;59.04;101629.88;5083733;28;19920;-77
2022/05/14 00:50:19;;;;;;;;;;;;;;;13.71;59.02;101635.91;5084645;28;20030;-77
2022/05/14 00:52:45;;;;;;;;;;;;;;;13.66;59.10;101638.59;5063371;28;20436;-75
2022/05/14 00:55:10;;;;;;;;;;;;;;;13.65;58.89;101636.88;5067657;28;19980;-75
2022/05/14 00:57:38;;;;;;;;;;;;;;;13.75;58.88;101635.84;5085201;28;19939;-74
2022/05/14 01:00:14;;;;;;;;;;;;;;;13.62;59.24;101642.16;5091639;28;20384;-75
2022/05/14 01:02:39;;;;;;;;;;;;;;;13.55;59.01;101647.53;5085246;28;19919;-74
2022/05/14 01:05:06;;;;;;;;;;;;;;;13.62;58.86;101641.28;5086566;28;20859;-74
2022/05/14 01:07:31;;;;;;;;;;;;;;;13.63;58.93;101635.19;5084956;28;19960;-74
2022/05/14 01:09:59;;;;;;;;;;;;;;;13.60;58.75;101633.50;5084634;28;19963;-74
2022/05/14 01:12:25;;;;;;;;;;;;;;;13.61;58.56;101627.38;5085249;28;20022;-74
2022/05/14 01:14:51;;;;;;;;;;;;;;;13.63;57.81;101629.97;5087241;28;19920;-74
2022/05/14 01:17:16;;;;;;;;;;;;;;;13.67;57.90;101629.91;5095337;28;19920;-74
2022/05/14 01:19:42;;;;;;;;;;;;;;;13.51;58.59;101625.00;5087068;28;19928;-78
2022/05/14 01:22:25;;;;;;;;;;;;;;;13.42;58.57;101631.25;5085669;28;20020;-74
2022/05/14 01:27:53;;;;;;;;;;;;;;;13.40;58.32;101632.16;5084757;28;19970;-74
2022/05/14 01:30:19;;;;;;;;;;;;;;;13.45;58.76;101628.56;5090447;28;19928;-74
2022/05/14 01:33:04;;;;;;;;;;;;;;;13.51;58.26;101633.69;5085995;28;19912;-74
2022/05/14 01:35:30;;;;;;;;;;;;;;;13.55;57.55;101630.09;5069340;28;19924;-74
2022/05/14 01:37:56;;;;;;;;;;;;;;;13.53;57.87;101631.03;5083922;28;20552;-74
2022/05/14 01:40:21;;;;;;;;;;;;;;;13.35;58.43;101628.75;5087487;28;19960;-74
2022/05/14 01:42:46;;;;;;;;;;;;;;;13.40;57.84;101632.16;5085273;28;19924;-77
2022/05/14 01:45:12;;;;;;;;;;;;;;;13.48;58.12;101631.13;5080960;28;19924;-77
2022/05/14 01:47:37;;;;;;;;;;;;;;;13.50;57.83;101637.16;5084609;28;19924;-78
2022/05/14 01:50:02;;;;;;;;;;;;;;;13.50;57.88;101638.91;5094618;28;19955;-75
2022/05/14 01:52:28;;;;;;;;;;;;;;;13.52;57.87;101634.56;5085623;28;19930;-75
2022/05/14 01:54:53;;;;;;;;;;;;;;;13.41;58.27;101634.72;5087891;28;19927;-74
2022/05/14 01:57:18;;;;;;;;;;;;;;;13.44;58.56;101634.69;5075261;28;19985;-74
2022/05/14 01:59:44;;;;;;;;;;;;;;;13.53;57.97;101629.28;5093731;28;19924;-74
2022/05/14 02:02:10;;;;;;;;;;;;;;;13.50;57.53;101631.94;5096800;28;19928;-74
2022/05/14 02:04:35;;;;;;;;;;;;;;;13.53;57.93;101629.28;5083919;28;19928;-75
2022/05/14 02:07:01;;;;;;;;;;;;;;;13.56;57.31;101634.44;5082535;28;19928;-74
2022/05/14 02:09:26;;;;;;;;;;;;;;;13.58;57.92;101631.81;5083015;28;19928;-74
2022/05/14 02:11:51;;;;;;;;;;;;;;;13.52;57.62;101631.94;5071454;28;19970;-74
2022/05/14 02:14:17;;;;;;;;;;;;;;;13.53;57.81;101634.50;5084955;28;19916;-74
2022/05/14 02:16:42;;;;;;;;;;;;;;;13.41;58.16;101632.13;5087030;28;19927;-74
2022/05/14 02:19:07;;;;;;;;;;;;;;;13.49;58.05;101632.00;5064503;28;19928;-75
2022/05/14 02:21:34;;;;;;;;;;;;;;;13.38;58.29;101637.41;5083280;28;20571;-77
2022/05/14 02:24:00;;;;;;;;;;;;;;;13.36;58.49;101636.59;5066690;28;19920;-77
2022/05/14 02:26:25;;;;;;;;;;;;;;;13.20;58.22;101641.22;5068242;28;19919;-77
2022/05/14 02:28:50;;;;;;;;;;;;;;;13.36;58.32;101636.59;5091856;28;19928;-77
2022/05/14 02:31:16;;;;;;;;;;;;;;;13.28;58.71;101648.91;5087476;28;20050;-77
2022/05/14 02:33:41;;;;;;;;;;;;;;;13.28;58.69;101640.22;5085601;28;19936;-77
2022/05/14 02:36:10;;;;;;;;;;;;;;;13.24;59.04;101647.25;5089202;28;19923;-74
2022/05/14 02:38:36;;;;;;;;;;;;;;;13.16;59.46;101649.13;5083285;28;19939;-74
2022/05/14 02:41:02;;;;;;;;;;;;;;;13.26;59.09;101650.66;5083618;28;19920;-74
2022/05/14 02:43:27;;;;;;;;;;;;;;;13.22;58.81;101636.81;5085641;28;20334;-75
2022/05/14 02:45:53;;;;;;;;;;;;;;;13.16;59.00;101643.91;5082385;28;19924;-74
2022/05/14 02:48:18;;;;;;;;;;;;;;;13.26;58.53;101645.44;5088473;28;20430;-74
2022/05/14 02:50:44;;;;;;;;;;;;;;;13.23;58.80;101645.50;5085524;28;19928;-74
2022/05/14 02:53:10;;;;;;;;;;;;;;;13.02;59.29;101648.50;5087198;28;19926;-74
2022/05/14 02:55:35;;;;;;;;;;;;;;;13.01;59.58;101638.97;5086765;28;19920;-75
2022/05/14 02:58:01;;;;;;;;;;;;;;;13.07;58.91;101644.06;5088394;28;20365;-74
2022/05/14 03:00:26;;;;;;;;;;;;;;;13.12;58.66;101643.09;5082288;28;19931;-74
2022/05/14 03:02:52;;;;;;;;;;;;;;;13.13;58.65;101641.34;5082289;28;19923;-74
2022/05/14 03:05:19;;;;;;;;;;;;;;;13.00;58.79;101639.84;5070134;28;20419;-78
2022/05/14 03:07:44;;;;;;;;;;;;;;;13.08;58.45;101645.78;5094726;28;19935;-74
2022/05/14 03:10:10;;;;;;;;;;;;;;;12.98;58.56;101641.63;5093210;28;19989;-74
2022/05/14 03:12:35;;;;;;;;;;;;;;;13.02;58.45;101644.13;5089159;28;19924;-74
2022/05/14 03:15:01;;;;;;;;;;;;;;;13.02;57.89;101646.75;5068990;28;19924;-75
2022/05/14 03:17:26;;;;;;;;;;;;;;;13.10;58.09;101649.25;5088680;28;19920;-74
2022/05/14 03:19:52;;;;;;;;;;;;;;;12.91;58.11;101646.06;5095674;28;19950;-77
2022/05/14 03:22:18;;;;;;;;;;;;;;;13.11;58.13;101650.94;5089206;28;20407;-74
2022/05/14 03:24:43;;;;;;;;;;;;;;;12.99;58.26;101654.63;5059998;28;19954;-74
2022/05/14 03:27:10;;;;;;;;;;;;;;;12.84;58.79;101647.03;5086238;28;20025;-74
2022/05/14 03:29:36;;;;;;;;;;;;;;;12.82;58.93;101646.22;5091218;28;19970;-74
2022/05/14 03:32:01;;;;;;;;;;;;;;;12.85;58.54;101651.38;5087434;28;19959;-74
2022/05/14 03:34:27;;;;;;;;;;;;;;;12.86;57.85;101647.03;5084445;28;20426;-75
2022/05/14 03:36:52;;;;;;;;;;;;;;;12.92;58.58;101650.41;5088727;28;19924;-74
2022/05/14 03:39:18;;;;;;;;;;;;;;;12.80;58.30;101644.53;5088805;28;20392;-74
2022/05/14 03:41:44;;;;;;;;;;;;;;;12.99;58.12;101644.19;5091974;28;20403;-74
2022/05/14 03:44:10;;;;;;;;;;;;;;;12.96;58.07;101648.59;5087792;28;20028;-74
2022/05/14 03:46:35;;;;;;;;;;;;;;;12.85;57.89;101642.69;5092841;28;19920;-74
2022/05/14 03:49:00;;;;;;;;;;;;;;;12.97;57.24;101647.72;5090186;28;20385;-74
2022/05/14 03:51:27;;;;;;;;;;;;;;;12.78;57.79;101649.75;5086828;28;19931;-74
2022/05/14 03:53:53;;;;;;;;;;;;;;;12.81;57.67;101656.69;5086089;28;19920;-77
2022/05/14 03:56:18;;;;;;;;;;;;;;;12.85;57.53;101656.59;5087700;28;20627;-77
2022/05/14 03:58:43;;;;;;;;;;;;;;;12.85;57.59;101650.53;5082942;28;20412;-77
2022/05/14 04:01:09;;;;;;;;;;;;;;;12.76;57.45;101655.88;5065853;28;19935;-77
2022/05/14 04:03:34;;;;;;;;;;;;;;;12.57;58.18;101660.53;5065077;28;19928;-77
2022/05/14 04:06:00;;;;;;;;;;;;;;;12.79;57.62;101648.00;5092500;28;19920;-77
2022/05/14 04:08:26;;;;;;;;;;;;;;;12.47;58.78;101653.69;5090734;28;20407;-77
2022/05/14 04:10:52;;;;;;;;;;;;;;;12.64;58.65;101652.59;5086466;28;20416;-77
2022/05/14 04:13:17;;;;;;;;;;;;;;;12.86;56.80;101655.72;5086218;28;19920;-74
2022/05/14 04:15:42;;;;;;;;;;;;;;;12.53;58.05;101662.31;5083556;28;19928;-78
2022/05/14 04:18:09;;;;;;;;;;;;;;;12.52;58.81;101659.69;5088975;28;20410;-77
2022/05/14 04:20:35;;;;;;;;;;;;;;;12.59;57.87;101664.84;5086613;28;19920;-77
2022/05/14 04:23:00;;;;;;;;;;;;;;;12.68;57.29;101658.63;5088824;28;20842;-74
2022/05/14 04:25:26;;;;;;;;;;;;;;;12.52;58.48;101664.91;5076577;28;19951;-74
2022/05/14 04:27:51;;;;;;;;;;;;;;;12.58;57.74;101660.50;5084811;28;19924;-77
2022/05/14 04:30:17;;;;;;;;;;;;;;;12.55;58.55;101673.56;5069809;28;20009;-77
2022/05/14 04:32:42;;;;;;;;;;;;;;;12.76;57.79;101667.19;5089248;28;19916;-77
2022/05/14 04:35:08;;;;;;;;;;;;;;;12.83;57.71;101676.63;5089687;28;19920;-74
2022/05/14 04:37:34;;;;;;;;;;;;;;;12.88;57.13;101672.19;5089003;28;19935;-74
2022/05/14 04:39:59;;;;;;;;;;;;;;;12.79;57.59;101672.34;5092254;28;19947;-74
2022/05/14 04:42:25;;;;;;;;;;;;;;;12.85;57.61;101677.47;5086387;28;20334;-74
2022/05/14 04:44:50;;;;;;;;;;;;;;;12.82;57.89;101674.03;5089057;28;19960;-74
2022/05/14 04:47:16;;;;;;;;;;;;;;;12.80;58.32;101681.03;5064391;28;20414;-78
2022/05/14 04:49:42;;;;;;;;;;;;;;;12.78;57.88;101675.00;5082355;28;19942;-77
2022/05/14 04:52:08;;;;;;;;;;;;;;;12.70;58.16;101680.31;5089260;28;19920;-75
2022/05/14 04:54:34;;;;;;;;;;;;;;;12.59;58.17;101682.22;5089972;28;20630;-74
2022/05/14 04:56:59;;;;;;;;;;;;;;;12.65;57.97;101683.00;5088215;28;19928;-77
2022/05/14 04:59:24;;;;;;;;;;;;;;;12.70;57.93;101680.31;5083031;28;19924;-77
2022/05/14 05:04:34;;;;;;;;;;;;;;;12.71;58.06;101675.97;5082500;28;19970;-77
2022/05/14 05:07:00;;;;;;;;;;;;;;;12.78;57.76;101678.44;5090267;28;19950;-77
2022/05/14 05:09:26;;;;;;;;;;;;;;;12.85;57.38;101680.06;5089883;28;19923;-77
2022/05/14 05:11:51;;;;;;;;;;;;;;;12.84;57.32;101680.09;5061949;28;19965;-77
2022/05/14 05:14:17;;;;;;;;;;;;;;;12.93;57.48;101675.59;5062609;28;19920;-77
2022/05/14 05:16:42;;;;;;;;;;;;;;;12.87;57.89;101677.47;5089318;28;19973;-77
2022/05/14 05:19:08;;;;;;;;;;;;;;;12.91;57.13;101686.94;5082273;28;20551;-77
2022/05/14 05:21:33;;;;;;;;;;;;;;;12.99;57.48;101685.06;5085084;28;19939;-77
2022/05/14 05:23:59;;;;;;;;;;;;;;;12.93;57.58;101683.41;5084039;28;20289;-77
2022/05/14 05:26:24;;;;;;;;;;;;;;;12.94;58.11;101689.50;5058722;28;19924;-77
2022/05/14 05:28:50;;;;;;;;;;;;;;;12.96;57.27;101692.94;5085141;28;19920;-77
2022/05/14 05:31:15;;;;;;;;;;;;;;;12.88;57.37;101687.84;5085571;28;19924;-77
2022/05/14 05:33:40;;;;;;;;;;;;;;;12.89;56.46;101684.38;5084803;28;20507;-76
2022/05/14 05:36:07;;;;;;;;;;;;;;;12.98;56.25;101686.81;5088328;28;20058;-75
2022/05/14 05:38:33;;;;;;;;;;;;;;;13.09;54.88;101686.63;5083238;28;19955;-74
2022/05/14 05:40:58;;;;;;;;;;;;;;;13.08;55.54;101690.13;5088155;28;19924;-74
2022/05/14 05:43:23;;;;;;;;;;;;;;;13.09;54.00;101690.09;5085047;28;19928;-74
2022/05/14 05:45:49;;;;;;;;;;;;;;;13.11;54.99;101690.06;5085630;28;19924;-74
2022/05/14 05:48:15;;;;;;;;;;;;;;;13.11;53.94;101690.06;5081969;28;20428;-74
2022/05/14 05:50:43;;;;;;;;;;;;;;;13.12;53.20;101699.63;5086560;28;19915;-74
2022/05/14 05:53:08;;;;;;;;;;;;;;;13.06;57.37;101702.34;5092249;28;19965;-76
2022/05/14 05:58:19;;;;;;;;;;;;;;;13.15;57.72;101700.44;5089774;28;19977;-77
2022/05/14 06:00:45;;;;;;;;;;;;;;;13.19;58.24;101709.09;5101666;28;20018;-77
2022/05/14 06:03:10;;;;;;;;;;;;;;;13.30;54.66;101709.75;5097372;28;19928;-77
2022/05/14 06:05:36;;;;;;;;;;;;;;;13.37;53.22;101698.34;5083856;28;20296;-77
2022/05/14 06:08:05;;;;;;;;;;;;;;;13.16;53.42;101703.91;5084468;28;19924;-77
2022/05/14 06:10:30;;;;;;;;;;;;;;;13.30;53.01;101708.88;5087228;28;19970;-77
2022/05/14 06:12:58;;;;;;;;;;;;;;;13.19;53.80;101711.69;5090916;28;20500;-77
2022/05/14 06:15:24;;;;;;;;;;;;;;;13.34;51.79;101703.59;5067772;28;20109;-78
2022/05/14 06:17:49;;;;;;;;;;;;;;;13.47;52.07;101710.31;5084293;28;20433;-77
2022/05/14 06:20:15;;;;;;;;;;;;;;;13.36;52.55;101706.19;5092282;28;19924;-78
2022/05/14 06:22:40;;;;;;;;;;;;;;;13.30;52.43;101708.88;5088350;28;20295;-77
2022/05/14 06:25:06;;;;;;;;;;;;;;;13.48;52.89;101709.44;5065555;28;19947;-77
2022/05/14 06:27:32;;;;;;;;;;;;;;;13.41;52.33;101706.94;5086520;28;20281;-77
2022/05/14 06:29:57;;;;;;;;;;;;;;;13.56;51.96;101717.97;5087581;28;19924;-77
2022/05/14 06:32:22;;;;;;;;;;;;;;;13.33;52.49;101714.06;5082619;28;19925;-77
2022/05/14 06:34:48;;;;;;;;;;;;;;;13.45;51.96;101721.69;5084867;28;19928;-75
2022/05/14 06:37:13;;;;;;;;;;;;;;;13.52;52.78;101725.91;5067686;28;19927;-77
2022/05/14 06:39:39;;;;;;;;;;;;;;;13.46;52.47;101726.03;5093575;28;19981;-77
2022/05/14 06:42:05;;;;;;;;;;;;;;;13.57;52.85;101726.69;5090267;28;20016;-77
2022/05/14 06:44:30;;;;;;;;;;;;;;;13.59;52.39;101732.72;5095600;28;19920;-78
2022/05/14 06:46:57;;;;;;;;;;;;;;;13.61;51.66;101728.34;5082169;28;19931;-77
2022/05/14 06:49:22;;;;;;;;;;;;;;;13.45;52.84;101727.75;5091908;28;19947;-77
2022/05/14 06:51:48;;;;;;;;;;;;;;;13.55;53.75;101731.91;5089627;28;20381;-77
2022/05/14 06:54:14;;;;;;;;;;;;;;;13.61;52.99;101730.97;5091259;28;20009;-77
2022/05/14 06:56:41;;;;;;;;;;;;;;;13.65;53.68;101741.31;5090768;28;19988;-78
2022/05/14 06:59:06;;;;;;;;;;;;;;;13.65;53.11;101743.94;5092871;28;20356;-78
2022/05/14 07:01:32;;;;;;;;;;;;;;;13.43;53.55;101746.94;5097395;28;20019;-78
2022/05/14 07:06:43;;;;;;;;;;;;;;;13.64;53.06;101739.56;5093306;28;19949;-76
2022/05/14 07:09:11;;;;;;;;;;;;;;;13.74;53.33;101743.78;5087965;28;19924;-78
2022/05/14 07:11:37;;;;;;;;;;;;;;;13.81;50.62;101743.69;5091417;28;19916;-78
2022/05/14 07:14:04;;;;;;;;;;;;;;;13.89;50.88;101750.47;5090578;28;19973;-77
2022/05/14 07:16:30;;;;;;;;;;;;;;;13.71;51.21;101738.63;5094587;28;19924;-78
2022/05/14 07:18:55;;;;;;;;;;;;;;;13.76;52.46;101743.75;5089972;28;20579;-78
2022/05/14 07:21:20;;;;;;;;;;;;;;;13.88;50.71;101734.84;5096952;28;19920;-78
2022/05/14 07:23:45;;;;;;;;;;;;;;;13.90;49.85;101743.50;5098125;28;19974;-78
2022/05/14 07:26:11;;;;;;;;;;;;;;;13.83;49.50;101750.59;5099266;28;19927;-78
2022/05/14 07:28:37;;;;;;;;;;;;;;;13.86;51.54;101757.50;5089580;28;19924;-78
2022/05/14 07:31:02;;;;;;;;;;;;;;;13.60;50.73;101745.75;5086583;28;19928;-77
2022/05/14 07:33:28;;;;;;;;;;;;;;;13.86;51.22;101757.50;5086576;28;19930;-77
2022/05/14 07:35:54;;;;;;;;;;;;;;;13.85;51.73;101756.63;5091835;28;19931;-77
2022/05/14 07:38:20;;;;;;;;;;;;;;;13.87;52.32;101757.50;5094303;28;19932;-77
2022/05/14 07:40:46;;;;;;;;;;;;;;;13.80;51.02;101742.81;5091208;28;19950;-77
2022/05/14 07:43:18;;;;;;;;;;;;;;;13.87;51.03;101741.81;5098233;28;19935;-74
2022/05/14 07:45:45;;;;;;;;;;;;;;;13.98;50.07;101736.38;5082808;28;20381;-74
2022/05/14 07:48:16;;;;;;;;;;;;;;;13.86;50.73;101734.88;5105283;28;20407;-75
2022/05/14 07:50:41;;;;;;;;;;;;;;;13.90;51.19;101739.16;5069731;28;20058;-78
2022/05/14 07:53:07;;;;;;;;;;;;;;;13.89;51.05;101740.03;5087941;28;20014;-78
2022/05/14 07:55:33;;;;;;;;;;;;;;;13.77;51.86;101738.50;5100394;28;19924;-77
2022/05/14 07:57:59;;;;;;;;;;;;;;;13.80;51.34;101724.53;5096257;28;19924;-76
2022/05/14 08:00:25;;;;;;;;;;;;;;;13.76;52.63;101723.72;5093205;28;20360;-77
2022/05/14 08:02:50;;;;;;;;;;;;;;;13.77;51.21;101725.44;5082464;28;19962;-77
2022/05/14 08:05:20;;;;;;;;;;;;;;;13.95;51.90;101724.22;5072550;28;19977;-75
2022/05/14 08:07:45;;;;;;;;;;;;;;;13.89;52.12;101729.56;5093329;28;19920;-74
2022/05/14 08:10:13;;;;;;;;;;;;;;;14.00;51.00;101729.34;5097524;28;19927;-74
2022/05/14 08:12:42;;;;;;;;;;;;;;;13.96;52.28;101727.72;5075830;28;19948;-74
2022/05/14 08:15:08;;;;;;;;;;;;;;;14.04;52.33;101725.81;5087540;28;20008;-77
2022/05/14 08:17:33;;;;;;;;;;;;;;;13.92;52.40;101728.66;5090580;28;20369;-78
2022/05/14 08:19:58;;;;;;;;;;;;;;;13.88;52.44;101732.25;5098815;28;19928;-78
2022/05/14 08:25:12;;;;;;;;;;;;;;;14.08;51.54;101737.94;5061050;28;19983;-77
2022/05/14 08:27:47;;;;;;;;;;;;;;;13.97;51.94;101725.06;5087727;28;19956;-77
2022/05/14 08:30:16;;;;;;;;;;;;;;;14.13;50.58;101723.00;5078356;28;20338;-76
2022/05/14 08:32:42;;;;;;;;;;;;;;;14.11;51.62;101728.28;5092723;28;20317;-75
2022/05/14 08:35:07;;;;;;;;;;;;;;;14.17;49.87;101719.44;5090760;28;19950;-78
2022/05/14 08:37:33;;;;;;;;;;;;;;;14.08;50.17;101722.25;5085235;28;19924;-78
2022/05/14 08:39:59;;;;;;;;;;;;;;;14.17;51.42;101722.06;5091840;28;19958;-78
2022/05/14 08:42:25;;;;;;;;;;;;;;;14.17;50.68;101725.53;5089782;28;19928;-78
2022/05/14 08:44:51;;;;;;;;;;;;;;;14.26;50.76;101730.53;5089320;28;20328;-78
2022/05/14 08:47:31;;;;;;;;;;;;;;;14.18;50.43;101726.38;5088488;28;20274;-78
2022/05/14 08:49:56;;;;;;;;;;;;;;;14.30;49.46;101726.13;5090655;28;19974;-78
2022/05/14 08:52:23;;;;;;;;;;;;;;;14.26;50.10;101722.72;5088046;28;19950;-78
2022/05/14 08:55:00;;;;;;;;;;;;;;;14.28;49.67;101727.91;5096909;28;20484;-78
2022/05/14 08:57:49;;;;;;;;;;;;;;;14.28;49.67;101709.63;5063581;28;19924;-78
2022/05/14 09:00:15;;;;;;;;;;;;;;;14.37;50.15;101714.66;5093333;28;19928;-77
2022/05/14 09:02:42;;;;;;;;;;;;;;;14.41;49.34;101710.22;5071715;28;19938;-77
2022/05/14 09:05:07;;;;;;;;;;;;;;;14.44;48.96;101707.53;5101929;28;19967;-77
2022/05/14 09:07:34;;;;;;;;;;;;;;;14.42;49.27;101702.34;5094418;28;19951;-77
2022/05/14 09:10:00;;;;;;;;;;;;;;;14.50;48.54;101696.94;5086070;28;19927;-78
2022/05/14 09:12:28;;;;;;;;;;;;;;;14.51;49.13;101696.91;5087548;28;19920;-78
2022/05/14 09:15:02;;;;;;;;;;;;;;;14.62;54.61;101701.91;5086317;28;20601;-78
2022/05/14 09:17:29;;;;;;;;;;;;;;;14.54;49.45;101694.22;5091354;28;19931;-75
2022/05/14 09:19:55;;;;;;;;;;;;;;;14.66;55.04;101714.00;5090482;28;19924;-75
2022/05/14 09:22:27;;;;;;;;;;;;;;;14.55;50.02;101705.53;5092526;28;19924;-75
2022/05/14 09:24:54;;;;;;;;;;;;;;;14.60;49.02;101706.28;5092741;28;19927;-75
2022/05/14 09:27:46;;;;;;;;;;;;;;;14.56;49.37;101710.72;5092720;28;19919;-75
2022/05/14 09:30:21;;;;;;;;;;;;;;;14.66;48.70;101703.53;5089862;28;19924;-77
2022/05/14 09:32:46;;;;;;;;;;;;;;;14.61;49.80;101708.03;5095856;28;20011;-77
2022/05/14 09:35:14;;;;;;;;;;;;;;;14.62;49.14;101704.53;5091350;28;19942;-76
2022/05/14 09:37:41;;;;;;;;;;;;;;;14.68;48.51;101699.16;5073963;28;19924;-75
2022/05/14 09:40:12;;;;;;;;;;;;;;;14.60;48.62;101698.44;5089722;28;19924;-75
2022/05/14 09:42:46;;;;;;;;;;;;;;;14.70;48.52;101702.59;5087683;28;19927;-76
2022/05/14 09:45:22;;;;;;;;;;;;;;;14.78;48.91;101701.53;5087568;28;20188;-76
2022/05/14 09:47:48;;;;;;;;;;;;;;;14.76;49.86;101695.50;5088864;28;19928;-76
2022/05/14 09:50:18;;;;;;;;;;;;;;;14.80;49.03;101699.72;5087537;28;19927;-76
2022/05/14 09:52:52;;;;;;;;;;;;;;;14.76;49.16;101687.66;5087839;28;19935;-78
2022/05/14 09:55:18;;;;;;;;;;;;;;;14.78;47.68;101690.22;5082578;28;19942;-78
2022/05/14 09:57:49;;;;;;;;;;;;;;;14.84;47.06;101684.84;5094792;28;19928;-78
2022/05/14 10:00:26;;;;;;;;;;;;;;;14.85;46.94;101689.19;5083454;28;19932;-78
2022/05/14 10:03:00;;;;;;;;;;;;;;;14.84;47.41;101683.09;5082380;28;19916;-76
2022/05/14 10:05:44;;;;;;;;;;;;;;;14.88;46.99;101689.09;5084942;28;20289;-76
2022/05/14 10:08:35;;;;;;;;;;;;;;;14.90;47.35;101691.66;5084138;28;19989;-75
2022/05/14 10:11:09;;;;;;;;;;;;;;;14.98;48.16;101687.13;5077785;28;19960;-75
2022/05/14 10:13:53;;;;;;;;;;;;;;;15.00;47.44;101688.81;5086649;28;19963;-75
2022/05/14 10:16:29;;;;;;;;;;;;;;;15.00;46.79;101685.34;5107130;28;19932;-75
2022/05/14 10:19:04;;;;;;;;;;;;;;;14.98;46.84;101682.72;5076523;28;19924;-75
2022/05/14 10:21:32;;;;;;;;;;;;;;;15.05;47.28;101683.44;5077109;28;19928;-78
2022/05/14 10:27:09;;;;;;;;;;;;;;;15.10;47.53;101686.81;5090464;28;20438;-78
2022/05/14 10:29:34;;;;;;;;;;;;;;;15.06;47.33;101680.81;5090511;28;19927;-78
2022/05/14 10:32:05;;;;;;;;;;;;;;;15.06;47.41;101674.72;5093658;28;19927;-78
2022/05/14 10:34:36;;;;;;;;;;;;;;;15.07;47.85;101679.03;5098557;28;19920;-78
2022/05/14 10:37:04;;;;;;;;;;;;;;;15.10;48.50;101678.94;5100992;28;19969;-78
2022/05/14 10:39:34;;;;;;;;;;;;;;;15.10;48.44;101678.94;5094423;28;19930;-75
2022/05/14 10:42:08;;;;;;;;;;;;;;;15.09;48.98;101685.97;5099058;28;19916;-75
2022/05/14 10:44:47;;;;;;;;;;;;;;;15.15;49.62;101674.47;5091873;28;20011;-75
2022/05/14 10:47:13;;;;;;;;;;;;;;;15.27;49.28;101674.16;5097983;28;19923;-77
2022/05/14 10:49:44;;;;;;;;;;;;;;;15.26;50.10;101677.69;5090487;28;19994;-77
2022/05/14 10:52:12;;;;;;;;;;;;;;;15.36;47.44;101677.38;5089587;28;19971;-77
2022/05/14 10:54:38;;;;;;;;;;;;;;;15.32;47.54;101674.91;5092090;28;19927;-76
2022/05/14 10:57:23;;;;;;;;;;;;;;;15.23;48.13;101673.38;5094998;28;20015;-77
2022/05/14 10:59:51;;;;;;;;;;;;;;;15.27;48.73;101676.78;5086585;28;20361;-75
2022/05/14 11:02:23;;;;;;;;;;;;;;;15.40;49.03;101665.06;5089376;28;19977;-77
2022/05/14 11:04:51;;;;;;;;;;;;;;;15.45;48.12;101665.84;5091005;28;19920;-78
2022/05/14 11:07:31;;;;;;;;;;;;;;;15.50;48.01;101666.56;5089147;28;19920;-78
2022/05/14 11:10:08;;;;;;;;;;;;;;;15.46;47.35;101670.16;5086556;28;20369;-77
2022/05/14 11:12:34;;;;;;;;;;;;;;;15.39;48.52;101671.22;5090010;28;19924;-78
2022/05/14 11:15:01;;;;;;;;;;;;;;;15.39;49.78;101671.22;5104843;28;19930;-78
2022/05/14 11:17:36;;;;;;;;;;;;;;;15.28;50.54;101670.63;5094109;28;19920;-78
2022/05/14 11:20:01;;;;;;;;;;;;;;;15.26;50.74;101670.69;5099997;28;19920;-78
2022/05/14 11:22:30;;;;;;;;;;;;;;;15.49;48.06;101664.84;5095769;28;19924;-78
2022/05/14 11:24:56;;;;;;;;;;;;;;;15.47;47.83;101658.78;5097933;28;20491;-76
2022/05/14 11:27:27;;;;;;;;;;;;;;;15.50;49.78;101656.09;5089360;28;20018;-76
2022/05/14 11:29:55;;;;;;;;;;;;;;;15.70;47.50;101660.75;5087608;28;20007;-76
2022/05/14 11:32:21;;;;;;;;;;;;;;;15.77;46.72;101651.88;5075462;28;20384;-76
2022/05/14 11:34:57;;;;;;;;;;;;;;;15.77;46.40;101652.75;5087532;28;19963;-76
2022/05/14 11:37:44;;;;;;;;;;;;;;;15.74;47.60;101660.69;5084938;28;20470;-76
2022/05/14 11:40:18;;;;;;;;;;;;;;;15.66;48.26;101652.13;5089454;28;19927;-76
2022/05/14 11:42:44;;;;;;;;;;;;;;;15.63;48.86;101646.13;5090711;28;19916;-76
2022/05/14 11:45:12;;;;;;;;;;;;;;;15.62;48.70;101644.41;5063188;28;19989;-76
2022/05/14 11:47:46;;;;;;;;;;;;;;;15.62;50.63;101652.28;5082593;28;20472;-76
2022/05/14 11:50:13;;;;;;;;;;;;;;;15.63;50.70;101646.97;5089376;28;19924;-76
2022/05/14 11:52:44;;;;;;;;;;;;;;;15.78;47.98;101645.72;5089741;28;19920;-75
2022/05/14 11:55:19;;;;;;;;;;;;;;;15.60;49.18;101644.44;5096201;28;19965;-75
2022/05/14 11:57:51;;;;;;;;;;;;;;;15.77;48.20;101642.25;5090076;28;19928;-75
2022/05/14 12:00:21;;;;;;;;;;;;;;;15.66;48.88;101644.25;5096686;28;19932;-75
2022/05/14 12:02:46;;;;;;;;;;;;;;;15.72;50.13;101645.88;5089479;28;20468;-75
2022/05/14 12:05:17;;;;;;;;;;;;;;;15.60;50.64;101641.81;5087526;28;19999;-75
2022/05/14 12:07:55;;;;;;;;;;;;;;;15.73;49.63;101643.22;5088039;28;20015;-75
2022/05/14 12:10:37;;;;;;;;;;;;;;;15.73;48.85;101624.88;5088200;28;19931;-77
2022/05/14 12:13:09;;;;;;;;;;;;;;;15.66;50.60;101636.41;5090929;28;20353;-77
2022/05/14 12:15:35;;;;;;;;;;;;;;;15.91;49.61;101631.38;5088873;28;20289;-77
2022/05/14 12:18:01;;;;;;;;;;;;;;;15.99;49.97;101629.38;5081102;28;19941;-77
2022/05/14 12:20:31;;;;;;;;;;;;;;;16.05;48.87;101626.56;5095545;28;20041;-77
2022/05/14 12:23:01;;;;;;;;;;;;;;;16.03;48.64;101627.53;5071465;28;20300;-77
2022/05/14 12:25:34;;;;;;;;;;;;;;;15.90;49.16;101621.78;5087525;28;19923;-77
2022/05/14 12:27:59;;;;;;;;;;;;;;;15.99;49.26;101629.38;5063877;28;19920;-77
2022/05/14 12:33:18;;;;;;;;;;;;;;;15.88;50.45;101624.47;5085092;28;20332;-78
2022/05/14 12:35:53;;;;;;;;;;;;;;;15.89;50.88;101626.19;5097956;28;19935;-76
2022/05/14 12:38:24;;;;;;;;;;;;;;;15.99;49.19;101616.25;5077408;28;20030;-76
2022/05/14 12:40:49;;;;;;;;;;;;;;;15.82;51.52;101615.91;5095221;28;19920;-76
2022/05/14 12:43:15;;;;;;;;;;;;;;;15.80;50.55;101609.88;5087806;28;19927;-76
2022/05/14 12:45:41;;;;;;;;;;;;;;;15.85;50.83;101613.22;5089098;28;19920;-76
2022/05/14 12:48:08;;;;;;;;;;;;;;;15.88;51.38;101611.34;5070201;28;20357;-76
2022/05/14 12:50:33;;;;;;;;;;;;;;;16.08;49.81;101617.75;5082897;28;19913;-77
2022/05/14 12:53:07;;;;;;;;;;;;;;;15.95;50.27;101612.91;5087202;28;19927;-77
2022/05/14 12:55:36;;;;;;;;;;;;;;;16.18;48.95;101606.09;5090538;28;19924;-77
2022/05/14 12:58:02;;;;;;;;;;;;;;;16.27;48.77;101598.81;5085403;28;19923;-77
2022/05/14 13:00:28;;;;;;;;;;;;;;;16.38;47.34;101598.47;5088661;28;19920;-77